LZIBLZSL

Guest
Details From LZIB - Bratislava/M.R. Stefanik
To LZSL - SLIAC
Flight Number -
Tags generated
Created
Modified
Stats Distance 82 nm / 152 km
Max Altitude 1,600 ft / 488 m
Waypoints 3
Social Downloads 3
Likes 0
Share VATSIM

Download

Looking for another format? Having issues loading an existing format? Contact us
Advertisement - Login to hide

Notes

Basic altitude profile: - Ascent Rate: 2500ft/min - Ascent Speed: 250kts - Cruise Altitude: 35000ft - Cruise Speed: 420kts - Descent Rate: 1500ft/min - Descent Speed: 250kts Options: - Use NATs: yes - Use PACOTS: yes - Use low airways: yes - Use high airways: yes

Route

LZIB OKR LZSL

ID Type Via Altitude Latitude Longitude Leg Dist Tot Dist Heading (true) Name
O LZIB APT - 0 ft / 0 m 48.16831˚ 17.21560˚ - 0 nm - Bratislava/M.R. Stefanik
OKR NDB - 1,600 ft / 488 m 48.22387˚ 17.29032˚ 4 nm 4 nm 42° / 42° STEFANIK NORTH NDB
O LZSL APT - 0 ft / 0 m 48.63784˚ 19.13411˚ 77 nm 82 nm 71° / 72° SLIAC

Altitude Profile

Advertisement - Login to hide

LZIB

Details ICAO LZIB (BTS)
Name Bratislava/M.R. Stefanik
Region Slovakia
Timezone Europe/Bratislava (UTC+1.0)
Stats Elevation 436 ft / 133 m (AMSL)
Location 48.168314° 17.215597°
Runways 2
Magnetic Variation 4.405° E

METAR

LZIB 171600Z VRB04KT 9999 FEW027 SCT053 02/M02 Q1020 NOSIG

Decode

TAF

Not found

Departure Runways

ID Width Length Bearing (true) Bearing (mag) Surface Threshold Offset Overrun Length
04 197 ft / 60 m 9,540 ft / 2,908 m 43.80° 39.39° Concrete 0 ft / 0 m 7 ft / 2 m
13 148 ft / 45 m 9,688 ft / 2,953 m 134.02° 129.61° Concrete 0 ft / 0 m 98 ft / 30 m
22 197 ft / 60 m 9,540 ft / 2,908 m 223.82° 219.41° Concrete 0 ft / 0 m 49 ft / 15 m
31 148 ft / 45 m 9,688 ft / 2,953 m 314.04° 309.63° Concrete 0 ft / 0 m 810 ft / 247 m

LZSL

Details ICAO LZSL (SLD)
Name SLIAC
Region Slovakia
Timezone Europe/Bratislava (UTC+1.0)
Stats Elevation 1,043 ft / 318 m (AMSL)
Location 48.637839° 19.134108°
Runways 1
Magnetic Variation 4.875° E

METAR

LZSL 171600Z 00000KT CAVOK M05/M07 Q1018

Decode

TAF

Not found

Destination Runways

ID Width Length Bearing (true) Bearing (mag) Surface Threshold Offset Overrun Length
18 197 ft / 60 m 7,657 ft / 2,334 m 181.94° 177.07° Concrete 0 ft / 0 m 180 ft / 55 m
36 197 ft / 60 m 7,657 ft / 2,334 m 1.93° 357.06° Concrete 0 ft / 0 m 65 ft / 20 m

Approach Navaids

Runway Type Ident Frequency Range Bearing (true) Bearing (mag) Slope Elevation
36 Localiser FS 108.70 MHz 18 nm / 33 km 1.94° 357.07° - 1,042 ft / 318 m (AMSL)
36 Glidescope FS 108.70 MHz 10 nm / 19 km 1.94° 357.06° 3.50° 1,042 ft / 318 m (AMSL)
36 DME FS 108.70 MHz 18 nm / 33 km - - - 1,047 ft / 319 m (AMSL)

Popular Alternatives